Time;durP1;ratioP1;P1;durP2;ratioP2;P2;SDS_P1;SDS_P2;PMS_P1;PMS_P2;Temp;Humidity;BMP_temperature;BMP_pressure;BME280_temperature;BME280_humidity;BME280_pressure;Samples;Min_cycle;Max_cycle;Signal;HPM_P1;HPM_P2
2023/07/26 00:00:35;;;;;;;4.57;2.00;;;;;;;14.12;86.28;100193.28;4826889;29;20516;-84
2023/07/26 00:03:38;;;;;;;;;;;;;;;14.10;85.70;100195.19;4827324;29;20106;-82
2023/07/26 00:06:41;;;;;;;8.05;1.83;;;;;;;13.98;85.16;100202.19;4826726;29;19970;-83
2023/07/26 00:09:44;;;;;;;7.38;2.00;;;;;;;13.95;85.68;100191.88;4826871;29;20061;-83
2023/07/26 00:12:48;;;;;;;4.70;2.05;;;;;;;13.91;85.84;100201.78;4825640;29;20072;-83
2023/07/26 00:15:51;;;;;;;5.95;1.27;;;;;;;13.86;85.86;100203.88;4826331;29;20048;-83
2023/07/26 00:18:54;;;;;;;5.93;1.92;;;;;;;13.94;85.35;100201.56;4826178;29;20111;-83
2023/07/26 00:22:04;;;;;;;5.43;1.55;;;;;;;13.87;85.12;100209.97;4826586;29;20492;-86
2023/07/26 00:25:37;;;;;;;8.00;1.40;;;;;;;13.94;84.82;100208.56;4826246;29;20057;-83
2023/07/26 00:28:41;;;;;;;7.97;2.00;;;;;;;13.86;84.49;100210.94;4826367;29;20072;-83
2023/07/26 00:31:45;;;;;;;6.03;1.38;;;;;;;13.91;84.67;100211.41;4826037;29;20048;-82
2023/07/26 00:34:48;;;;;;;6.22;1.63;;;;;;;13.81;84.42;100205.16;4826146;29;20115;-82
2023/07/26 00:37:52;;;;;;;6.75;1.75;;;;;;;13.78;84.84;100208.00;4826081;29;20050;-82
2023/07/26 00:40:56;;;;;;;6.60;1.50;;;;;;;13.70;85.06;100209.38;4826411;29;20116;-81
2023/07/26 00:43:59;;;;;;;11.40;2.22;;;;;;;13.62;84.75;100219.56;4814958;29;20053;-82
2023/07/26 00:47:04;;;;;;;6.22;1.55;;;;;;;13.46;85.34;100221.59;4825011;29;20108;-83
2023/07/26 00:50:09;;;;;;;8.98;1.50;;;;;;;13.56;84.75;100216.53;4825875;29;20155;-82
2023/07/26 00:53:14;;;;;;;5.30;1.65;;;;;;;13.29;85.60;100220.13;4825602;29;20056;-82
2023/07/26 00:56:18;;;;;;;7.85;2.13;;;;;;;13.24;85.89;100220.47;4804061;29;20053;-82
2023/07/26 00:59:21;;;;;;;7.63;1.65;;;;;;;13.20;86.04;100216.31;4824922;29;20054;-83
2023/07/26 01:02:29;;;;;;;5.95;1.20;;;;;;;13.32;85.16;100226.97;4825704;29;20440;-84
2023/07/26 01:05:45;;;;;;;4.20;1.42;;;;;;;13.31;85.31;100214.78;4825092;29;20084;-84
2023/07/26 01:09:14;;;;;;;4.15;1.42;;;;;;;13.20;86.05;100226.81;4824651;29;20571;-85
2023/07/26 01:12:25;;;;;;;4.25;1.58;;;;;;;13.31;84.83;100227.91;4812943;29;20487;-82
2023/07/26 01:15:34;;;;;;;8.32;1.48;;;;;;;13.19;85.14;100225.13;4823715;29;20546;-82
2023/07/26 01:18:37;;;;;;;4.18;1.27;;;;;;;13.15;86.05;100228.91;4824153;29;20061;-83
2023/07/26 01:21:41;;;;;;;3.70;1.45;;;;;;;13.18;85.66;100227.88;4813595;29;20118;-83
2023/07/26 01:24:44;;;;;;;6.03;1.67;;;;;;;13.16;84.86;100220.09;4825216;29;20141;-83
2023/07/26 01:27:47;;;;;;;5.60;1.55;;;;;;;13.13;84.72;100217.66;4824631;29;20482;-83
2023/07/26 01:30:59;;;;;;;4.90;1.45;;;;;;;12.91;86.11;100231.38;4825252;29;20046;-83
2023/07/26 01:34:06;;;;;;;4.53;1.40;;;;;;;12.97;85.83;100230.16;4825283;29;20113;-83
2023/07/26 01:37:10;;;;;;;5.80;1.45;;;;;;;13.11;85.15;100230.03;4824293;29;20409;-83
2023/07/26 01:40:14;;;;;;;4.40;1.30;;;;;;;13.03;85.73;100227.13;4825529;29;20131;-83
2023/07/26 01:43:21;;;;;;;8.10;1.70;;;;;;;12.93;86.54;100231.31;4825384;29;20104;-83
2023/07/26 01:46:25;;;;;;;6.78;1.67;;;;;;;12.90;87.14;100234.97;4814190;29;20151;-83
2023/07/26 01:49:29;;;;;;;6.18;1.45;;;;;;;12.89;87.39;100227.19;4824981;29;20425;-83
2023/07/26 01:52:32;;;;;;;6.45;2.33;;;;;;;12.88;87.69;100236.00;4814010;29;20131;-83
2023/07/26 01:55:36;;;;;;;7.30;1.73;;;;;;;12.90;87.55;100228.88;4813559;29;20588;-83
2023/07/26 01:58:47;;;;;;;7.82;1.75;;;;;;;12.96;86.82;100221.44;4809212;29;20097;-84
2023/07/26 02:01:50;;;;;;;;;;;;;;;13.10;85.65;100227.53;4806360;29;20072;-84
2023/07/26 02:04:55;;;;;;;8.27;1.65;;;;;;;12.97;86.76;100235.41;4795654;29;19973;-84
2023/07/26 02:08:05;;;;;;;3.88;1.33;;;;;;;12.89;87.47;100232.44;4805212;29;20103;-84
2023/07/26 02:11:11;;;;;;;5.22;1.20;;;;;;;13.01;87.42;100240.31;4795727;29;20049;-85
2023/07/26 02:14:16;;;;;;;6.32;1.65;;;;;;;12.97;87.50;100230.16;4795407;29;20045;-85
2023/07/26 02:17:24;;;;;;;4.32;1.35;;;;;;;12.91;87.85;100235.81;4795476;29;20057;-84
2023/07/26 02:20:27;;;;;;;7.22;2.30;;;;;;;12.84;88.27;100237.16;4795323;29;20057;-82
2023/07/26 02:23:31;;;;;;;5.13;1.70;;;;;;;12.87;88.83;100242.22;4795059;29;20049;-82
2023/07/26 02:26:34;;;;;;;4.03;1.48;;;;;;;13.04;87.52;100239.28;4805658;29;20536;-83
2023/07/26 02:29:39;;;;;;;4.85;1.42;;;;;;;13.05;87.08;100241.00;4806065;29;20409;-83
2023/07/26 02:32:42;;;;;;;9.55;1.70;;;;;;;13.04;87.56;100244.53;4804984;29;20126;-83
2023/07/26 02:35:46;;;;;;;5.68;1.60;;;;;;;13.12;87.25;100242.25;4795173;29;20108;-83
2023/07/26 02:38:49;;;;;;;4.75;2.10;;;;;;;13.24;86.79;100248.44;4805422;29;20058;-83
2023/07/26 02:41:53;;;;;;;5.00;1.77;;;;;;;13.27;86.96;100248.25;4805786;29;20163;-83
2023/07/26 02:44:57;;;;;;;3.15;1.38;;;;;;;13.13;87.75;100246.53;4805820;29;20053;-86
2023/07/26 02:48:11;;;;;;;4.03;1.30;;;;;;;13.03;87.94;100251.56;4795841;29;20147;-84
2023/07/26 02:51:14;;;;;;;5.93;1.50;;;;;;;13.03;88.32;100248.13;4805422;29;20072;-84
2023/07/26 02:54:17;;;;;;;3.63;1.70;;;;;;;13.16;87.64;100243.72;4805761;29;20046;-82
2023/07/26 02:57:20;;;;;;;4.38;1.55;;;;;;;13.12;87.99;100250.13;4799031;29;20429;-83
2023/07/26 03:00:24;;;;;;;5.78;2.15;;;;;;;12.97;88.91;100251.16;4824150;29;20073;-83
2023/07/26 03:03:27;;;;;;;4.57;1.40;;;;;;;13.04;89.03;100252.41;4824073;29;20119;-83
2023/07/26 03:06:31;;;;;;;3.17;1.42;;;;;;;13.18;88.24;100249.72;4812952;29;20053;-83
2023/07/26 03:09:39;;;;;;;2.88;1.60;;;;;;;13.12;88.38;100255.38;4824156;29;20085;-83
2023/07/26 03:12:42;;;;;;;7.55;1.83;;;;;;;13.15;88.34;100263.03;4823967;29;20416;-81
2023/07/26 03:15:45;;;;;;;6.13;1.80;;;;;;;13.10;88.76;100259.88;4812620;29;20103;-81
2023/07/26 03:18:48;;;;;;;3.40;1.40;;;;;;;13.19;88.35;100259.25;4824590;29;20049;-82
2023/07/26 03:21:51;;;;;;;5.68;1.75;;;;;;;13.14;88.81;100253.47;4827870;29;20441;-82
2023/07/26 03:24:55;;;;;;;4.30;1.55;;;;;;;13.24;88.54;100264.19;4816022;29;20512;-82
2023/07/26 03:27:58;;;;;;;3.20;1.48;;;;;;;13.25;88.26;100261.50;4827385;29;20060;-81
2023/07/26 03:31:02;;;;;;;5.80;1.73;;;;;;;13.33;87.81;100265.38;4815903;29;20111;-82
2023/07/26 03:34:06;;;;;;;3.25;1.70;;;;;;;13.21;88.15;100269.69;4826834;29;20046;-81
2023/07/26 03:37:10;;;;;;;7.00;1.73;;;;;;;13.21;88.39;100272.31;4815857;29;20052;-82
2023/07/26 03:40:13;;;;;;;5.95;2.22;;;;;;;13.19;88.49;100277.63;4826235;29;20450;-82
2023/07/26 03:43:16;;;;;;;8.00;1.80;;;;;;;13.16;88.76;100277.84;4827224;29;20137;-82
2023/07/26 03:46:19;;;;;;;5.15;1.60;;;;;;;13.25;88.64;100282.50;4826062;29;20053;-77
2023/07/26 03:49:23;;;;;;;6.50;2.47;;;;;;;13.21;88.61;100274.94;4826071;29;20062;-80
2023/07/26 03:52:26;;;;;;;9.05;2.05;;;;;;;13.12;89.28;100273.75;4827101;29;20129;-86
2023/07/26 03:55:30;;;;;;;6.43;2.00;;;;;;;13.12;89.27;100272.91;4826719;29;20123;-85
2023/07/26 03:58:33;;;;;;;6.50;2.15;;;;;;;13.04;89.50;100278.66;4811969;29;20528;-83
2023/07/26 04:01:36;;;;;;;2.72;1.70;;;;;;;13.04;90.15;100276.03;4808534;29;20054;-79
2023/07/26 04:04:43;;;;;;;7.53;1.92;;;;;;;13.10;89.55;100274.78;4809060;29;20054;-86
2023/07/26 04:11:45;;;;;;;8.27;1.73;;;;;;;13.04;90.15;100281.28;4806689;29;20100;-85
2023/07/26 04:14:53;;;;;;;2.42;1.27;;;;;;;13.15;89.70;100281.41;4807501;29;20050;-78
2023/07/26 04:17:57;;;;;;;5.60;1.50;;;;;;;13.21;89.31;100285.44;4807096;29;20076;-80
2023/07/26 04:21:00;;;;;;;9.77;1.92;;;;;;;13.24;89.28;100290.44;4806823;29;20220;-76
2023/07/26 04:24:05;;;;;;;7.55;1.58;;;;;;;13.20;89.58;100283.72;4806294;29;20061;-83
2023/07/26 04:27:08;;;;;;;3.40;1.55;;;;;;;13.31;89.05;100283.91;4806074;29;20525;-79
2023/07/26 04:30:11;;;;;;;;;;;;;;;13.21;89.69;100278.38;4806638;29;20050;-83
2023/07/26 04:33:14;;;;;;;5.37;1.53;;;;;;;13.23;90.00;100283.53;4806507;29;19967;-81
2023/07/26 04:36:18;;;;;;;6.13;1.63;;;;;;;13.17;90.20;100282.13;4806654;29;20556;-85
2023/07/26 04:39:21;;;;;;;6.47;1.42;;;;;;;13.16;90.12;100283.09;4806608;29;20116;-85
2023/07/26 04:42:26;;;;;;;5.40;1.70;;;;;;;13.21;90.17;100286.28;4806552;29;20108;-83
2023/07/26 04:45:30;;;;;;;5.15;1.50;;;;;;;13.22;90.32;100290.56;4806271;29;20232;-83
2023/07/26 04:48:34;;;;;;;7.85;2.17;;;;;;;13.20;90.43;100295.06;4806545;29;20153;-81
2023/07/26 04:51:38;;;;;;;3.15;1.30;;;;;;;13.26;89.70;100310.44;4806425;29;20053;-77
2023/07/26 04:54:41;;;;;;;8.55;1.40;;;;;;;13.25;89.58;100327.16;4805497;29;20108;-80
2023/07/26 04:57:45;;;;;;;7.65;2.60;;;;;;;13.31;90.29;100319.81;4805858;29;20148;-83
2023/07/26 05:00:52;;;;;;;6.47;2.83;;;;;;;13.36;90.72;100320.34;4806583;29;20062;-81
2023/07/26 05:04:02;;;;;;;5.07;1.60;;;;;;;13.35;90.86;100323.91;4806097;29;20138;-78
2023/07/26 05:07:06;;;;;;;5.88;1.55;;;;;;;13.31;91.22;100307.53;4805597;29;20580;-78
2023/07/26 05:10:09;;;;;;;5.10;2.25;;;;;;;13.31;92.12;100310.16;4805946;29;20120;-81
2023/07/26 05:13:13;;;;;;;5.18;1.45;;;;;;;13.29;92.33;100316.44;4806018;29;20120;-78
2023/07/26 05:16:17;;;;;;;6.70;1.50;;;;;;;13.22;92.60;100319.44;4806256;29;20049;-79
2023/07/26 05:19:20;;;;;;;6.07;1.63;;;;;;;13.27;92.89;100321.78;4806113;29;20041;-81
2023/07/26 05:22:26;;;;;;;7.88;1.98;;;;;;;13.20;93.49;100331.81;4805885;29;20099;-81
2023/07/26 05:25:30;;;;;;;7.28;2.15;;;;;;;13.24;93.14;100338.59;4805757;29;20104;-79
2023/07/26 05:28:33;;;;;;;;;;;;;;;13.29;93.02;100332.19;4806096;29;20429;-79
2023/07/26 05:31:36;;;;;;;4.15;1.75;;;;;;;13.38;92.76;100329.78;4805399;29;20300;-80
2023/07/26 05:34:39;;;;;;;5.10;1.60;;;;;;;13.42;92.47;100331.25;4805645;29;20141;-80
2023/07/26 05:37:42;;;;;;;;;;;;;;;13.34;92.78;100332.75;4810772;29;20145;-80
2023/07/26 05:40:50;;;;;;;5.60;1.70;;;;;;;13.34;92.87;100330.13;4805520;29;19974;-80
2023/07/26 05:43:57;;;;;;;4.45;1.63;;;;;;;13.28;93.33;100326.13;4803740;29;20045;-80
2023/07/26 05:47:03;;;;;;;6.13;2.17;;;;;;;13.29;92.91;100326.94;4804741;29;20049;-79
2023/07/26 05:50:07;;;;;;;5.50;1.88;;;;;;;13.38;92.63;100336.84;4804339;29;20065;-79
2023/07/26 05:53:10;;;;;;;4.97;1.90;;;;;;;13.36;93.51;100326.41;4804814;29;20077;-79
2023/07/26 05:56:14;;;;;;;3.63;1.40;;;;;;;13.47;93.48;100330.97;4805360;29;20050;-79
2023/07/26 05:59:17;;;;;;;4.88;1.80;;;;;;;13.45;92.78;100328.44;4823540;29;20160;-79
2023/07/26 06:02:21;;;;;;;4.88;1.58;;;;;;;13.51;92.95;100334.22;4823831;29;20173;-79
2023/07/26 06:05:25;;;;;;;6.93;1.92;;;;;;;13.58;92.73;100333.69;4822943;29;20076;-81
2023/07/26 06:08:28;;;;;;;3.80;1.50;;;;;;;13.60;92.63;100339.69;4821645;29;20088;-84
2023/07/26 06:11:32;;;;;;;4.30;1.77;;;;;;;13.65;92.75;100344.63;4821312;29;20056;-77
2023/07/26 06:14:36;;;;;;;10.63;1.88;;;;;;;13.71;92.64;100339.78;4821987;29;20110;-83
2023/07/26 06:17:40;;;;;;;6.72;2.70;;;;;;;13.79;92.64;100346.34;4822424;29;20053;-83
2023/07/26 06:20:43;;;;;;;4.45;1.83;;;;;;;13.78;92.42;100348.09;4822433;29;20053;-83
2023/07/26 06:23:46;;;;;;;4.97;1.80;;;;;;;13.87;91.69;100350.09;4827511;29;20453;-80
2023/07/26 06:26:52;;;;;;;9.45;2.03;;;;;;;13.86;92.73;100350.22;4822696;29;20116;-80
2023/07/26 06:29:57;;;;;;;6.65;2.03;;;;;;;13.80;92.51;100348.00;4822714;29;20066;-80
2023/07/26 06:33:01;;;;;;;4.97;2.05;;;;;;;13.78;93.20;100353.34;4822443;29;20099;-80
2023/07/26 06:36:04;;;;;;;4.25;1.95;;;;;;;13.82;93.19;100356.63;4822220;29;20073;-80
2023/07/26 06:39:07;;;;;;;4.45;2.05;;;;;;;13.90;93.02;100355.16;4810820;29;20057;-80
2023/07/26 06:42:10;;;;;;;5.63;2.13;;;;;;;13.92;93.68;100355.06;4821949;29;20103;-79
2023/07/26 06:45:14;;;;;;;4.82;1.85;;;;;;;13.87;93.80;100351.91;4822068;29;20103;-78
2023/07/26 06:48:17;;;;;;;2.97;1.80;;;;;;;13.92;95.64;100355.06;4822024;29;20120;-80
2023/07/26 06:51:20;;;;;;;5.45;2.40;;;;;;;14.10;93.86;100350.28;4822298;29;20053;-79
2023/07/26 06:54:24;;;;;;;6.60;2.13;;;;;;;14.17;93.57;100355.03;4821479;29;20049;-78
2023/07/26 06:57:27;;;;;;;5.03;1.98;;;;;;;14.15;93.46;100356.91;4821625;29;20061;-78
2023/07/26 07:00:31;;;;;;;6.18;2.22;;;;;;;14.27;92.33;100360.50;4821623;29;20073;-79
2023/07/26 07:03:35;;;;;;;6.85;2.10;;;;;;;14.31;92.79;100355.84;4821815;29;20045;-77
2023/07/26 07:06:38;;;;;;;6.20;2.60;;;;;;;14.37;91.46;100352.78;4821750;29;20099;-78
2023/07/26 07:09:42;;;;;;;3.58;1.90;;;;;;;14.36;88.75;100351.13;4821547;29;20106;-78
2023/07/26 07:12:45;;;;;;;5.72;2.08;;;;;;;14.53;88.04;100353.41;4821796;29;20115;-77
2023/07/26 07:15:48;;;;;;;5.32;2.92;;;;;;;14.46;86.71;100354.78;4820725;29;20057;-77
2023/07/26 07:18:52;;;;;;;5.47;2.10;;;;;;;14.46;87.10;100354.78;4821735;29;20077;-74
2023/07/26 07:21:56;;;;;;;6.43;2.15;;;;;;;14.45;85.99;100357.50;4821651;29;20057;-73
2023/07/26 07:25:00;;;;;;;6.03;2.03;;;;;;;14.26;86.73;100366.69;4821245;29;20111;-73
2023/07/26 07:28:03;;;;;;;5.63;2.20;;;;;;;14.31;85.85;100361.13;4821713;29;20069;-73
2023/07/26 07:31:06;;;;;;;6.32;2.15;;;;;;;14.45;86.19;100368.03;4821779;29;20069;-71
2023/07/26 07:34:10;;;;;;;4.07;2.20;;;;;;;14.62;87.02;100360.66;4821605;29;20050;-70
2023/07/26 07:37:14;;;;;;;10.73;2.08;;;;;;;14.73;85.56;100357.22;4821916;29;20445;-80
2023/07/26 07:40:17;;;;;;;5.00;2.30;;;;;;;14.69;83.75;100360.22;4821523;29;20052;-81
2023/07/26 07:43:21;;;;;;;6.13;2.53;;;;;;;14.76;84.43;100357.00;4822317;29;20129;-80
2023/07/26 07:46:28;;;;;;;3.47;1.98;;;;;;;14.73;84.95;100361.66;4822008;29;20141;-80
2023/07/26 07:49:31;;;;;;;5.10;2.22;;;;;;;14.64;83.49;100357.88;4822080;29;20056;-81
2023/07/26 07:52:34;;;;;;;7.47;2.72;;;;;;;14.69;83.05;100365.47;4822167;29;20085;-81
2023/07/26 07:55:38;;;;;;;7.13;2.45;;;;;;;14.65;83.00;100368.31;4821629;29;20099;-81
2023/07/26 07:58:41;;;;;;;6.68;2.45;;;;;;;14.75;83.56;100365.88;4821663;29;20053;-81
2023/07/26 08:01:45;;;;;;;4.13;2.10;;;;;;;14.86;80.80;100372.97;4821850;29;20099;-81
2023/07/26 08:04:48;;;;;;;4.72;1.90;;;;;;;15.00;79.67;100366.72;4810528;29;20519;-81
2023/07/26 08:07:52;;;;;;;5.03;2.20;;;;;;;14.94;78.95;100372.44;4825001;29;20049;-81
2023/07/26 08:10:56;;;;;;;8.05;2.30;;;;;;;15.06;78.62;100372.38;4824887;29;20154;-80
2023/07/26 08:14:00;;;;;;;5.57;2.33;;;;;;;15.04;79.65;100382.19;4824361;29;20053;-81
2023/07/26 08:17:04;;;;;;;6.95;2.40;;;;;;;15.26;79.77;100380.59;4824758;29;20052;-81
2023/07/26 08:20:11;;;;;;;6.63;2.05;;;;;;;15.20;79.02;100381.88;4824597;29;20049;-81
2023/07/26 08:23:16;;;;;;;9.75;2.42;;;;;;;15.30;78.16;100382.88;4824477;29;20073;-82
2023/07/26 08:26:19;;;;;;;6.70;1.90;;;;;;;15.46;78.79;100387.84;4823555;29;20134;-81
2023/07/26 08:29:25;;;;;;;5.78;2.10;;;;;;;15.59;77.89;100378.06;4824424;29;20045;-81
2023/07/26 08:32:28;;;;;;;5.45;2.00;;;;;;;15.66;77.57;100377.59;4822995;29;20141;-81
2023/07/26 08:35:32;;;;;;;7.80;2.50;;;;;;;15.95;76.27;100378.91;4823713;29;20523;-81
2023/07/26 08:38:35;;;;;;;7.93;2.58;;;;;;;16.02;75.13;100372.19;4823490;29;20122;-81
2023/07/26 08:41:39;;;;;;;7.60;2.95;;;;;;;16.09;74.33;100374.34;4823294;29;20188;-81
2023/07/26 08:44:46;;;;;;;6.28;2.60;;;;;;;15.93;73.74;100375.53;4822518;29;20133;-81
2023/07/26 08:47:53;;;;;;;7.35;2.08;;;;;;;15.96;74.22;100375.31;4824495;29;20061;-81
2023/07/26 08:50:56;;;;;;;5.55;2.40;;;;;;;15.95;74.20;100370.13;4824247;29;20049;-81
2023/07/26 08:53:59;;;;;;;4.55;2.58;;;;;;;16.03;73.73;100370.38;4823981;29;20179;-81
2023/07/26 08:57:03;;;;;;;7.00;2.72;;;;;;;15.86;74.39;100368.19;4822265;29;20145;-81
2023/07/26 09:00:07;;;;;;;4.57;2.17;;;;;;;16.06;74.32;100379.88;4824157;29;20119;-81
2023/07/26 09:03:13;;;;;;;5.93;2.53;;;;;;;16.17;73.00;100369.31;4824443;29;20516;-81
2023/07/26 09:06:16;;;;;;;6.55;2.47;;;;;;;16.27;72.10;100362.34;4824174;29;20464;-80
2023/07/26 09:09:21;;;;;;;11.45;3.45;;;;;;;16.27;72.66;100372.91;4823594;29;20446;-81
2023/07/26 09:12:27;;;;;;;4.68;1.60;;;;;;;16.16;71.77;100359.72;4823339;29;20107;-81
2023/07/26 09:15:36;;;;;;;5.25;1.88;;;;;;;16.23;72.30;100360.91;4823726;29;20080;-81
2023/07/26 09:19:01;;;;;;;5.43;2.17;;;;;;;16.56;70.69;100351.28;4811783;29;20441;-72
2023/07/26 09:22:08;;;;;;;4.97;2.17;;;;;;;16.82;68.98;100339.50;4823720;29;20057;-72
2023/07/26 09:25:11;;;;;;;6.82;2.10;;;;;;;16.89;68.51;100348.59;4823562;29;20520;-72
2023/07/26 09:28:15;;;;;;;6.95;1.60;;;;;;;17.14;68.99;100330.75;4823484;29;20062;-72
2023/07/26 09:31:31;;;;;;;5.55;2.50;;;;;;;16.76;69.11;100347.09;4823744;29;20045;-72
2023/07/26 09:34:34;;;;;;;4.90;2.38;;;;;;;16.65;68.46;100350.53;4823926;29;20112;-73
2023/07/26 09:37:38;;;;;;;8.07;2.00;;;;;;;16.78;68.39;100353.91;4823497;29;20045;-72
2023/07/26 09:40:41;;;;;;;4.88;2.10;;;;;;;16.43;68.80;100349.63;4823309;29;20053;-73
2023/07/26 09:43:44;;;;;;;6.45;2.47;;;;;;;16.63;68.73;100363.03;4823348;29;20102;-72
2023/07/26 09:46:52;;;;;;;7.85;2.65;;;;;;;16.55;68.14;100361.00;4823459;29;20512;-73
2023/07/26 09:49:55;;;;;;;4.22;2.00;;;;;;;16.39;68.00;100371.94;4823416;29;20421;-72
2023/07/26 09:53:02;;;;;;;4.05;2.22;;;;;;;16.22;69.02;100369.78;4823119;29;20063;-72
2023/07/26 09:56:05;;;;;;;6.47;2.55;;;;;;;16.19;74.00;100385.88;4823085;29;20064;-72
2023/07/26 09:59:10;;;;;;;5.40;2.50;;;;;;;16.02;76.63;100403.84;4823110;29;20099;-72
2023/07/26 10:02:13;;;;;;;8.05;2.38;;;;;;;15.26;78.31;100439.38;4823345;29;20069;-72
2023/07/26 10:05:19;;;;;;;4.47;1.95;;;;;;;14.72;80.14;100423.16;4823013;29;20049;-72
2023/07/26 10:08:23;;;;;;;4.88;1.25;;;;;;;14.64;76.91;100423.69;4823114;29;20053;-72
2023/07/26 10:11:28;;;;;;;2.38;1.23;;;;;;;14.94;79.08;100423.28;4823018;29;20058;-72
2023/07/26 10:14:33;;;;;;;4.07;1.77;;;;;;;15.40;81.53;100425.19;4823083;29;20061;-72
2023/07/26 10:17:38;;;;;;;7.47;1.60;;;;;;;15.57;82.12;100422.16;4822692;29;20122;-72
2023/07/26 10:20:43;;;;;;;6.18;1.50;;;;;;;15.72;81.83;100416.72;4823232;29;20532;-72
2023/07/26 10:23:48;;;;;;;5.53;1.60;;;;;;;15.88;82.12;100411.13;4822203;29;20612;-72
2023/07/26 10:26:55;;;;;;;3.60;1.67;;;;;;;15.77;80.23;100411.94;4822754;29;20178;-72
2023/07/26 10:29:59;;;;;;;8.63;2.35;;;;;;;15.64;81.43;100405.88;4822184;29;20053;-72
2023/07/26 10:33:02;;;;;;;5.32;2.33;;;;;;;15.58;78.51;100400.09;4822678;29;20057;-72
2023/07/26 10:36:07;;;;;;;5.68;2.08;;;;;;;15.81;79.06;100401.03;4822607;29;20425;-72
2023/07/26 10:39:12;;;;;;;4.57;2.10;;;;;;;15.85;81.49;100392.88;4822748;29;20053;-74
2023/07/26 10:42:24;;;;;;;5.05;1.95;;;;;;;16.10;83.53;100397.13;4822608;29;20421;-72
2023/07/26 10:45:42;;;;;;;7.03;2.05;;;;;;;16.20;77.50;100387.53;4822473;29;20053;-73
2023/07/26 10:48:47;;;;;;;4.60;1.30;;;;;;;15.92;76.61;100389.69;4822461;29;20537;-72
2023/07/26 10:52:02;;;;;;;4.32;1.60;;;;;;;16.18;75.76;100389.47;4822511;29;20053;-72
2023/07/26 10:55:23;;;;;;;4.55;1.58;;;;;;;16.28;74.15;100374.59;4821574;29;20064;-72
2023/07/26 10:58:26;;;;;;;2.92;1.50;;;;;;;16.33;74.37;100376.84;4809423;29;20075;-72
2023/07/26 11:01:40;;;;;;;2.78;1.50;;;;;;;16.42;74.25;100371.69;4804162;29;20054;-73
2023/07/26 11:04:44;;;;;;;3.60;1.60;;;;;;;16.23;71.94;100366.19;4804149;29;20054;-72
2023/07/26 11:07:55;;;;;;;3.65;1.50;;;;;;;16.23;72.97;100366.19;4804174;29;20073;-73
2023/07/26 11:10:58;;;;;;;2.67;1.40;;;;;;;16.38;71.38;100354.44;4804240;29;20068;-73
2023/07/26 11:14:16;;;;;;;3.22;1.65;;;;;;;16.56;71.88;100351.28;4804095;29;20053;-73
2023/07/26 11:17:19;;;;;;;3.78;1.63;;;;;;;16.62;71.97;100353.44;4803178;29;20073;-73
2023/07/26 11:20:23;;;;;;;4.03;1.30;;;;;;;16.61;69.56;100352.59;4804064;29;20121;-73
2023/07/26 11:23:28;;;;;;;3.42;1.58;;;;;;;16.56;68.67;100352.13;4804303;29;20104;-73
2023/07/26 11:26:39;;;;;;;3.47;1.55;;;;;;;16.79;67.78;100352.13;4804411;29;20077;-82
2023/07/26 11:29:43;;;;;;;2.75;1.27;;;;;;;16.73;64.73;100348.13;4804361;29;20098;-79
2023/07/26 11:32:48;;;;;;;4.45;1.77;;;;;;;16.83;64.17;100353.53;4803986;29;20123;-79
2023/07/26 11:35:52;;;;;;;2.63;1.38;;;;;;;16.91;61.94;100340.53;4804099;29;20464;-79
2023/07/26 11:38:55;;;;;;;3.00;1.08;;;;;;;16.96;61.57;100333.91;4804049;29;20050;-79
2023/07/26 11:41:58;;;;;;;3.28;1.52;;;;;;;17.02;60.98;100326.47;4806501;29;20451;-79
2023/07/26 11:45:12;;;;;;;3.45;1.30;;;;;;;17.05;60.20;100327.03;4807383;29;20112;-75
2023/07/26 11:48:16;;;;;;;2.00;1.02;;;;;;;17.20;60.40;100330.22;4807012;29;20049;-74
2023/07/26 11:51:20;;;;;;;2.50;1.52;;;;;;;17.27;59.48;100320.81;4807210;29;20053;-73
2023/07/26 11:54:23;;;;;;;2.70;0.90;;;;;;;17.38;57.81;100320.75;4807359;29;20129;-73
2023/07/26 11:57:28;;;;;;;2.70;1.00;;;;;;;17.56;57.41;100317.53;4812128;29;20111;-75
2023/07/26 12:00:33;;;;;;;2.70;1.35;;;;;;;17.68;55.51;100327.06;4824863;29;20056;-76
2023/07/26 12:03:36;;;;;;;5.30;1.10;;;;;;;17.70;54.36;100327.75;4825337;29;20468;-77
2023/07/26 12:06:41;;;;;;;2.63;1.13;;;;;;;17.71;54.10;100321.53;4825533;29;20052;-76
2023/07/26 12:09:45;;;;;;;3.35;1.35;;;;;;;17.93;53.72;100322.34;4825128;29;20108;-75
2023/07/26 12:12:48;;;;;;;4.22;1.23;;;;;;;18.22;54.24;100307.44;4825464;29;20096;-75
2023/07/26 12:15:53;;;;;;;2.95;1.10;;;;;;;18.50;53.64;100310.25;4824949;29;20137;-76
2023/07/26 12:19:00;;;;;;;2.50;1.40;;;;;;;18.60;52.77;100313.75;4825215;29;20053;-76
2023/07/26 12:22:04;;;;;;;3.47;1.30;;;;;;;18.77;53.10;100314.94;4825031;29;20053;-76
2023/07/26 12:25:07;;;;;;;4.50;1.40;;;;;;;18.70;52.04;100313.81;4825024;29;20123;-76
2023/07/26 12:28:11;;;;;;;3.95;1.77;;;;;;;18.47;51.92;100310.53;4825483;29;20057;-75
2023/07/26 12:31:20;;;;;;;4.10;1.13;;;;;;;18.62;52.61;100300.41;4824967;29;20464;-74
2023/07/26 12:34:31;;;;;;;6.75;1.00;;;;;;;18.70;52.19;100304.03;4824819;29;20061;-74
2023/07/26 12:37:35;;;;;;;3.63;1.65;;;;;;;19.04;52.77;100301.84;4824710;29;20539;-75
2023/07/26 12:40:39;;;;;;;3.25;1.50;;;;;;;19.25;51.96;100300.84;4825327;29;20520;-75
2023/07/26 12:44:05;;;;;;;2.45;1.27;;;;;;;19.27;51.55;100298.88;4824916;29;20063;-75
2023/07/26 12:47:10;;;;;;;3.28;1.25;;;;;;;19.01;52.30;100301.28;4823515;29;20104;-75
2023/07/26 12:50:13;;;;;;;4.13;1.17;;;;;;;18.84;52.25;100308.13;4824007;29;20574;-76
2023/07/26 12:53:19;;;;;;;4.93;1.48;;;;;;;18.71;52.75;100315.47;4812521;29;20428;-74
2023/07/26 12:56:24;;;;;;;2.50;1.20;;;;;;;18.53;53.22;100316.13;4813127;29;20115;-75
2023/07/26 12:59:27;;;;;;;5.00;1.83;;;;;;;18.40;54.63;100357.06;4824357;29;20054;-75
2023/07/26 13:02:31;;;;;;;6.70;1.00;;;;;;;17.91;58.15;100383.31;4824721;29;20078;-74
2023/07/26 13:05:35;;;;;;;3.25;1.27;;;;;;;16.72;65.05;100391.34;4824631;29;20129;-73
2023/07/26 13:08:39;;;;;;;7.68;1.65;;;;;;;16.65;70.26;100371.66;4824315;29;20513;-74
2023/07/26 13:11:44;;;;;;;7.55;1.65;;;;;;;16.74;71.82;100376.19;4823128;29;20049;-73
2023/07/26 13:14:47;;;;;;;4.65;1.08;;;;;;;16.76;73.70;100371.69;4823918;29;20469;-73
2023/07/26 13:17:51;;;;;;;5.18;1.55;;;;;;;16.79;75.11;100389.91;4823870;29;20053;-76
2023/07/26 13:20:55;;;;;;;3.58;1.30;;;;;;;16.67;72.65;100407.53;4824130;29;20428;-76
2023/07/26 13:23:58;;;;;;;3.30;1.05;;;;;;;17.18;74.84;100401.69;4823987;29;20153;-72
2023/07/26 13:27:01;;;;;;;3.65;1.30;;;;;;;17.62;74.88;100396.34;4823746;29;20054;-72
2023/07/26 13:30:06;;;;;;;3.90;1.20;;;;;;;17.98;72.70;100381.00;4824119;29;20099;-74
2023/07/26 13:33:09;;;;;;;3.53;1.13;;;;;;;18.27;69.64;100381.13;4824017;29;20129;-74
2023/07/26 13:36:21;;;;;;;1.98;0.70;;;;;;;18.58;69.36;100381.94;4824048;29;20159;-74
2023/07/26 13:39:25;;;;;;;3.28;1.60;;;;;;;18.64;69.24;100391.16;4824139;29;20096;-74
2023/07/26 13:42:35;;;;;;;3.65;1.13;;;;;;;18.40;69.26;100383.53;4824383;29;20135;-74
2023/07/26 13:45:39;;;;;;;2.70;0.95;;;;;;;18.20;71.41;100409.91;4824126;29;20107;-74
2023/07/26 13:48:42;;;;;;;2.38;1.05;;;;;;;17.60;73.59;100422.06;4824321;29;20663;-74
2023/07/26 13:51:46;;;;;;;4.38;1.00;;;;;;;16.81;78.40;100450.50;4824039;29;20121;-74
2023/07/26 13:54:52;;;;;;;2.58;1.20;;;;;;;16.14;74.62;100477.69;4823825;29;20119;-74
2023/07/26 13:57:56;;;;;;;3.22;1.20;;;;;;;15.58;73.70;100494.16;4823581;29;20053;-74
2023/07/26 14:00:59;;;;;;;3.70;1.25;;;;;;;14.95;79.41;100498.69;4823937;29;20046;-74
2023/07/26 14:04:02;;;;;;;10.15;1.40;;;;;;;15.04;80.66;100492.78;4822782;29;20061;-73
2023/07/26 14:07:07;;;;;;;6.22;1.50;;;;;;;15.11;82.16;100490.53;4823766;29;20057;-73
2023/07/26 14:10:10;;;;;;;7.53;2.13;;;;;;;15.29;84.58;100491.00;4823597;29;20443;-74
2023/07/26 14:13:15;;;;;;;10.93;2.00;;;;;;;15.45;83.93;100480.19;4823463;29;20053;-73
2023/07/26 14:16:21;;;;;;;3.60;1.45;;;;;;;15.55;83.80;100479.41;4823193;29;20513;-73
2023/07/26 14:19:25;;;;;;;6.13;1.50;;;;;;;15.55;81.93;100481.19;4823473;29;20069;-73
2023/07/26 14:22:28;;;;;;;3.35;0.77;;;;;;;15.49;77.56;100477.22;4823283;29;20057;-73
2023/07/26 14:25:33;;;;;;;2.38;1.00;;;;;;;15.63;78.23;100478.81;4823326;29;20131;-73